createdAt,value
2019-04-25T00:02:05.028Z,97385.89
2019-04-25T00:04:45.300Z,97372.14
2019-04-25T00:07:15.289Z,97362.89
2019-04-25T00:09:53.172Z,97368.45
2019-04-25T00:12:38.049Z,97369.34
2019-04-25T00:15:11.172Z,97365.47
2019-04-25T00:17:43.335Z,97366.66
2019-04-25T00:20:15.187Z,97365.88
2019-04-25T00:23:02.012Z,97367.55
2019-04-25T00:25:51.226Z,97366.78
2019-04-25T00:28:21.746Z,97368.23
2019-04-25T00:30:52.326Z,97366.59
2019-04-25T00:33:23.073Z,97362.50
2019-04-25T00:35:53.324Z,97366.18
2019-04-25T00:38:23.299Z,97366.63
2019-04-25T00:40:53.593Z,97369.40
2019-04-25T00:43:23.722Z,97375.17
2019-04-25T00:45:53.968Z,97372.88
2019-04-25T00:48:24.557Z,97369.98
2019-04-25T00:50:54.722Z,97381.33
2019-04-25T00:53:25.184Z,97375.19
2019-04-25T00:55:55.171Z,97381.34
2019-04-25T00:58:43.067Z,97377.83
2019-04-25T01:01:32.053Z,97379.45
2019-04-25T01:04:02.447Z,97378.31
2019-04-25T01:06:32.731Z,97381.50
2019-04-25T01:09:03.445Z,97384.41
2019-04-25T01:11:33.995Z,97379.05
2019-04-25T01:14:03.948Z,97378.41
2019-04-25T01:16:33.870Z,97374.76
2019-04-25T01:19:03.871Z,97380.25
2019-04-25T01:21:34.531Z,97390.65
2019-04-25T01:24:04.544Z,97391.41
2019-04-25T01:26:34.640Z,97390.11
2019-04-25T01:29:05.974Z,97389.97
2019-04-25T01:31:36.958Z,97396.84
2019-04-25T01:34:09.939Z,97394.57
2019-04-25T01:36:58.983Z,97389.81
2019-04-25T01:39:47.543Z,97396.91
2019-04-25T01:42:43.837Z,97414.17
2019-04-25T01:45:14.847Z,97417.60
2019-04-25T01:47:45.569Z,97410.73
2019-04-25T01:50:15.799Z,97403.56
2019-04-25T01:52:45.810Z,97414.49
2019-04-25T01:55:16.047Z,97416.78
2019-04-25T01:57:46.272Z,97416.95
2019-04-25T02:00:19.172Z,97424.24
2019-04-25T02:02:51.015Z,97419.78
2019-04-25T02:05:21.110Z,97418.70
2019-04-25T02:07:51.524Z,97417.91
2019-04-25T02:10:21.483Z,97421.09
2019-04-25T02:12:56.398Z,97422.46
2019-04-25T02:15:30.070Z,97430.08
2019-04-25T02:18:00.337Z,97431.21
2019-04-25T02:20:30.445Z,97434.21
2019-04-25T02:23:00.567Z,97431.66
2019-04-25T02:25:31.095Z,97430.05
2019-04-25T02:28:02.501Z,97430.77
2019-04-25T02:30:35.322Z,97436.00
2019-04-25T02:33:08.560Z,97452.90
2019-04-25T02:35:36.327Z,97444.17
2019-04-25T02:38:08.741Z,97444.98
2019-04-25T02:40:37.945Z,97441.91
2019-04-25T02:43:08.421Z,97436.09
2019-04-25T02:45:57.097Z,97436.22
2019-04-25T02:48:45.651Z,97439.23
2019-04-25T02:51:40.558Z,97444.30
2019-04-25T02:54:11.238Z,97441.00
2019-04-25T02:56:41.206Z,97430.76
2019-04-25T02:59:11.298Z,97436.25
2019-04-25T03:01:44.322Z,97439.05
2019-04-25T03:04:14.637Z,97434.63
2019-04-25T03:06:45.472Z,97432.20
2019-04-25T03:09:15.766Z,97431.75
2019-04-25T03:11:47.659Z,97430.39
2019-04-25T03:14:17.510Z,97434.28
2019-04-25T03:16:47.760Z,97437.30
2019-04-25T03:19:54.868Z,97443.17
2019-04-25T03:22:27.404Z,97445.49
2019-04-25T03:24:59.689Z,97442.70
2019-04-25T03:27:29.884Z,97440.98
2019-04-25T03:29:59.965Z,97443.34
2019-04-25T03:32:29.907Z,97441.70
2019-04-25T03:35:01.174Z,97440.18
2019-04-25T03:37:31.056Z,97435.77
2019-04-25T03:40:02.055Z,97443.07
2019-04-25T03:42:33.900Z,97443.16
2019-04-25T03:45:05.860Z,97450.20
2019-04-25T03:47:35.961Z,97453.19
2019-04-25T03:50:07.290Z,97458.14
2019-04-25T03:52:38.096Z,97451.61
2019-04-25T03:55:08.687Z,97445.84
2019-04-25T03:57:39.603Z,97445.43
2019-04-25T04:00:10.809Z,97445.06
2019-04-25T04:02:40.782Z,97437.75
2019-04-25T04:05:11.484Z,97440.26
2019-04-25T04:07:41.436Z,97431.03
2019-04-25T04:10:14.109Z,97431.33
2019-04-25T04:12:44.328Z,97417.29
2019-04-25T04:15:16.108Z,97411.32
2019-04-25T04:17:55.338Z,97408.95
2019-04-25T04:20:43.559Z,97405.92
2019-04-25T04:23:19.158Z,97389.25
2019-04-25T04:25:49.351Z,97377.85
2019-04-25T04:28:19.309Z,97376.32
2019-04-25T04:30:49.498Z,97387.39
2019-04-25T04:33:29.617Z,97382.16
2019-04-25T04:35:51.043Z,97396.77
2019-04-25T04:38:21.128Z,97414.17
2019-04-25T04:40:51.374Z,97422.22
2019-04-25T04:43:21.288Z,97426.43
2019-04-25T04:45:51.212Z,97429.36
2019-04-25T04:48:21.142Z,97428.45
2019-04-25T04:50:51.188Z,97419.95
2019-04-25T04:53:21.102Z,97420.20
2019-04-25T04:55:51.013Z,97420.51
2019-04-25T04:58:20.967Z,97416.95
2019-04-25T05:00:50.951Z,97421.08
2019-04-25T05:03:27.988Z,97418.27
2019-04-25T05:06:11.010Z,97416.06
2019-04-25T05:08:54.749Z,97413.34
2019-04-25T05:11:25.535Z,97413.81
2019-04-25T05:13:55.497Z,97411.46
2019-04-25T05:16:25.647Z,97410.25
2019-04-25T05:18:55.626Z,97414.09
2019-04-25T05:21:25.618Z,97417.55
2019-04-25T05:23:55.523Z,97407.39
2019-04-25T05:26:25.431Z,97408.51
2019-04-25T05:28:55.317Z,97405.55
2019-04-25T05:31:34.501Z,97405.19
2019-04-25T05:34:04.422Z,97411.78
2019-04-25T05:36:38.159Z,97405.05
2019-04-25T05:39:12.194Z,97406.33
2019-04-25T05:41:48.256Z,97404.33
2019-04-25T05:44:18.731Z,97391.55
2019-04-25T05:46:48.695Z,97396.66
2019-04-25T05:49:19.280Z,97402.41
2019-04-25T05:51:49.238Z,97403.76
2019-04-25T05:54:19.157Z,97399.95
2019-04-25T05:56:49.076Z,97406.34
2019-04-25T05:59:19.484Z,97401.73
2019-04-25T06:01:49.786Z,97404.34
2019-04-25T06:04:19.734Z,97408.15
2019-04-25T06:06:49.680Z,97410.98
2019-04-25T06:09:38.491Z,97413.19
2019-04-25T06:12:26.057Z,97418.43
2019-04-25T06:14:55.973Z,97415.31
2019-04-25T06:17:47.822Z,97413.35
2019-04-25T06:20:20.162Z,97412.41
2019-04-25T06:22:58.268Z,97406.59
2019-04-25T06:25:32.911Z,97409.63
2019-04-25T06:28:03.761Z,97414.42
2019-04-25T06:30:35.220Z,97411.78
2019-04-25T06:33:05.608Z,97412.34
2019-04-25T06:35:35.995Z,97416.22
2019-04-25T06:38:06.350Z,97412.58
2019-04-25T06:40:36.438Z,97410.35
2019-04-25T06:43:06.590Z,97403.08
2019-04-25T06:45:55.470Z,97396.18
2019-04-25T06:48:35.386Z,97400.75
2019-04-25T06:51:05.545Z,97406.83
2019-04-25T06:53:35.765Z,97395.31
2019-04-25T06:56:06.608Z,97394.75
2019-04-25T06:58:36.839Z,97389.86
2019-04-25T07:01:06.885Z,97387.33
2019-04-25T07:03:36.905Z,97381.43
2019-04-25T07:06:07.535Z,97380.38
2019-04-25T07:08:37.473Z,97377.28
2019-04-25T07:11:07.497Z,97370.06
2019-04-25T07:13:38.897Z,97371.59
2019-04-25T07:16:08.842Z,97374.70
2019-04-25T07:18:38.880Z,97360.88
2019-04-25T07:21:08.939Z,97370.34
2019-04-25T07:23:39.022Z,97374.09
2019-04-25T07:26:15.935Z,97372.91
2019-04-25T07:29:10.673Z,97368.27
2019-04-25T07:31:54.425Z,97364.72
2019-04-25T07:34:26.524Z,97357.19
2019-04-25T07:36:57.535Z,97345.84
2019-04-25T07:39:27.561Z,97351.63
2019-04-25T07:41:58.384Z,97344.57
2019-04-25T07:44:41.994Z,97334.48
2019-04-25T07:47:00.257Z,97334.63
2019-04-25T07:49:30.518Z,97332.61
2019-04-25T07:52:00.481Z,97326.63
2019-04-25T07:54:30.692Z,97331.58
2019-04-25T07:57:00.594Z,97326.73
2019-04-25T07:59:30.995Z,97329.52
2019-04-25T08:02:00.961Z,97318.87
2019-04-25T08:04:31.787Z,97323.63
2019-04-25T08:07:04.109Z,97318.66
2019-04-25T08:09:35.732Z,97324.12
2019-04-25T08:12:06.220Z,97315.55
2019-04-25T08:14:59.887Z,97313.05
2019-04-25T08:17:49.062Z,97316.72
2019-04-25T08:20:19.541Z,97318.66
2019-04-25T08:22:56.551Z,97313.04
2019-04-25T08:25:23.491Z,97308.11
2019-04-25T08:27:53.580Z,97307.12
2019-04-25T08:30:26.102Z,97311.47
2019-04-25T08:32:56.196Z,97305.40
2019-04-25T08:35:26.318Z,97305.84
2019-04-25T08:37:56.299Z,97306.98
2019-04-25T08:40:26.703Z,97303.41
2019-04-25T08:42:56.711Z,97305.27
2019-04-25T08:45:27.406Z,97304.63
2019-04-25T08:47:59.148Z,97296.92
2019-04-25T08:50:42.299Z,97303.06
2019-04-25T08:53:13.689Z,97298.98
2019-04-25T08:55:59.189Z,97302.52
2019-04-25T08:58:46.521Z,97298.17
2019-04-25T09:01:24.889Z,97293.66
2019-04-25T09:04:13.211Z,97287.06
2019-04-25T09:06:44.271Z,97283.77
2019-04-25T09:09:14.235Z,97287.02
2019-04-25T09:11:46.937Z,97283.44
2019-04-25T09:14:16.056Z,97290.02
2019-04-25T09:16:46.225Z,97287.77
2019-04-25T09:19:16.111Z,97288.48
2019-04-25T09:21:49.479Z,97275.10
2019-04-25T09:24:17.810Z,97274.19
2019-04-25T09:26:48.509Z,97283.98
2019-04-25T09:29:19.866Z,97275.53
2019-04-25T09:31:50.003Z,97264.78
2019-04-25T09:34:20.066Z,97263.65
2019-04-25T09:36:50.437Z,97260.19
2019-04-25T09:39:35.612Z,97258.45
2019-04-25T09:42:06.008Z,97261.58
2019-04-25T09:44:46.708Z,97255.73
2019-04-25T09:47:16.930Z,97250.55
2019-04-25T09:49:48.349Z,97240.34
2019-04-25T09:52:20.339Z,97252.18
2019-04-25T09:54:59.874Z,97238.87
2019-04-25T09:57:39.111Z,97239.07
2019-04-25T10:00:19.331Z,97236.52
2019-04-25T10:02:49.371Z,97224.77
2019-04-25T10:05:19.533Z,97226.80
2019-04-25T10:07:49.527Z,97227.11
2019-04-25T10:10:19.651Z,97218.55
2019-04-25T10:12:49.966Z,97210.54
2019-04-25T10:15:30.619Z,97217.31
2019-04-25T10:18:01.269Z,97216.43
2019-04-25T10:20:31.243Z,97215.09
2019-04-25T10:23:01.272Z,97209.31
2019-04-25T10:25:31.458Z,97206.98
2019-04-25T10:28:01.860Z,97205.38
2019-04-25T10:30:31.888Z,97202.05
2019-04-25T10:33:05.665Z,97198.94
2019-04-25T10:35:46.712Z,97203.66
2019-04-25T10:38:08.023Z,97201.37
2019-04-25T10:40:38.491Z,97188.81
2019-04-25T10:43:09.406Z,97189.64
2019-04-25T10:45:39.790Z,97186.97
2019-04-25T10:48:10.671Z,97187.87
2019-04-25T10:50:41.738Z,97177.61
2019-04-25T10:53:11.860Z,97174.95
2019-04-25T10:55:41.826Z,97170.58
2019-04-25T10:58:11.995Z,97162.36
2019-04-25T11:00:46.104Z,97161.09
2019-04-25T11:03:31.336Z,97166.56
2019-04-25T11:06:01.253Z,97160.17
2019-04-25T11:08:31.495Z,97151.91
2019-04-25T11:11:01.592Z,97145.36
2019-04-25T11:13:33.932Z,97144.98
2019-04-25T11:16:04.690Z,97135.37
2019-04-25T11:18:34.840Z,97141.30
2019-04-25T11:21:06.078Z,97130.48
2019-04-25T11:23:36.212Z,97130.89
2019-04-25T11:26:06.518Z,97126.86
2019-04-25T11:28:36.977Z,97123.39
2019-04-25T11:31:08.892Z,97114.48
2019-04-25T11:33:39.240Z,97126.92
2019-04-25T11:36:09.195Z,97123.64
2019-04-25T11:38:50.363Z,97115.33
2019-04-25T11:41:21.291Z,97127.53
2019-04-25T11:43:51.308Z,97112.63
2019-04-25T11:46:21.282Z,97121.77
2019-04-25T11:48:52.571Z,97128.20
2019-04-25T11:51:24.055Z,97119.39
2019-04-25T11:53:55.477Z,97130.04
2019-04-25T11:56:26.429Z,97126.72
2019-04-25T11:58:56.645Z,97124.38
2019-04-25T12:01:26.914Z,97125.16
2019-04-25T12:03:57.706Z,97115.23
2019-04-25T12:06:27.767Z,97116.53
2019-04-25T12:08:57.833Z,97113.61
2019-04-25T12:11:27.817Z,97103.19
2019-04-25T12:13:57.972Z,97109.28
2019-04-25T12:16:28.378Z,97092.81
2019-04-25T12:18:58.360Z,97095.09
2019-04-25T12:21:28.427Z,97079.59
2019-04-25T12:24:01.713Z,97094.88
2019-04-25T12:26:30.714Z,97086.03
2019-04-25T12:29:00.771Z,97086.71
2019-04-25T12:31:30.817Z,97094.70
2019-04-25T12:34:00.795Z,97080.58
2019-04-25T12:36:30.914Z,97073.47
2019-04-25T12:39:01.137Z,97076.24
2019-04-25T12:41:31.071Z,97077.16
2019-04-25T12:44:15.438Z,97067.42
2019-04-25T12:46:48.426Z,97075.55
2019-04-25T12:49:18.442Z,97070.00
2019-04-25T12:51:48.419Z,97061.87
2019-04-25T12:54:18.565Z,97064.11
2019-04-25T12:56:49.264Z,97063.55
2019-04-25T12:59:19.296Z,97070.47
2019-04-25T13:01:49.618Z,97070.93
2019-04-25T13:04:19.540Z,97063.64
2019-04-25T13:06:50.474Z,97059.42
2019-04-25T13:09:20.537Z,97069.09
2019-04-25T13:11:50.459Z,97059.59
2019-04-25T13:14:20.986Z,97058.02
2019-04-25T13:16:50.992Z,97053.97
2019-04-25T13:19:24.135Z,97062.88
2019-04-25T13:21:54.374Z,97051.16
2019-04-25T13:24:24.717Z,97047.37
2019-04-25T13:27:01.095Z,97044.54
2019-04-25T13:29:53.220Z,97046.00
2019-04-25T13:32:41.032Z,97040.48
2019-04-25T13:35:18.914Z,97037.23
2019-04-25T13:37:49.173Z,97039.73
2019-04-25T13:40:19.288Z,97036.27
2019-04-25T13:42:49.946Z,97037.21
2019-04-25T13:45:19.978Z,97037.52
2019-04-25T13:47:50.086Z,97027.42
2019-04-25T13:50:21.582Z,97037.86
2019-04-25T13:52:53.374Z,97023.32
2019-04-25T13:55:24.031Z,97018.34
2019-04-25T13:57:55.028Z,97023.78
2019-04-25T14:00:26.167Z,97017.61
2019-04-25T14:02:56.182Z,97015.21
2019-04-25T14:05:26.529Z,97010.67
2019-04-25T14:07:56.622Z,97010.58
2019-04-25T14:10:26.867Z,97003.50
2019-04-25T14:12:57.073Z,97000.95
2019-04-25T14:15:28.479Z,96998.45
2019-04-25T14:18:24.032Z,96998.35
2019-04-25T14:20:58.533Z,96999.52
2019-04-25T14:23:29.387Z,96994.16
2019-04-25T14:25:59.322Z,96982.00
2019-04-25T14:28:31.529Z,96989.60
2019-04-25T14:31:02.117Z,96988.40
2019-04-25T14:33:33.210Z,96979.55
2019-04-25T14:36:04.184Z,96973.73
2019-04-25T14:38:35.399Z,96975.66
2019-04-25T14:41:06.064Z,96970.62
2019-04-25T14:43:37.843Z,96972.00
2019-04-25T14:46:08.122Z,96963.86
2019-04-25T14:48:38.104Z,96965.09
2019-04-25T14:51:10.741Z,96966.45
2019-04-25T14:53:40.386Z,96965.80
2019-04-25T14:56:21.660Z,96962.98
2019-04-25T14:58:52.405Z,96958.90
2019-04-25T15:01:24.133Z,96959.64
2019-04-25T15:03:54.368Z,96950.91
2019-04-25T15:06:25.878Z,96949.90
2019-04-25T15:08:55.942Z,96946.23
2019-04-25T15:11:26.946Z,96945.23
2019-04-25T15:13:57.601Z,96956.20
2019-04-25T15:16:27.606Z,96952.52
2019-04-25T15:18:57.501Z,96953.89
2019-04-25T15:21:27.653Z,96952.86
2019-04-25T15:24:00.348Z,96955.97
2019-04-25T15:26:29.961Z,96946.86
2019-04-25T15:29:00.475Z,96951.14
2019-04-25T15:31:30.498Z,96959.27
2019-04-25T15:34:02.384Z,96955.66
2019-04-25T15:36:50.082Z,96957.36
2019-04-25T15:39:41.854Z,96957.83
2019-04-25T15:42:43.023Z,96952.66
2019-04-25T15:45:50.755Z,96953.55
2019-04-25T15:48:20.887Z,96948.61
2019-04-25T15:50:51.115Z,96944.70
2019-04-25T15:53:21.158Z,96950.28
2019-04-25T15:55:52.025Z,96948.87
2019-04-25T15:58:22.139Z,96946.30
2019-04-25T16:00:52.149Z,96938.47
2019-04-25T16:03:22.134Z,96945.54
2019-04-25T16:05:52.145Z,96939.87
2019-04-25T16:08:22.180Z,96934.66
2019-04-25T16:10:52.142Z,96938.87
2019-04-25T16:13:22.282Z,96934.67
2019-04-25T16:15:52.244Z,96935.09
2019-04-25T16:18:24.296Z,96944.92
2019-04-25T16:20:54.184Z,96943.27
2019-04-25T16:23:24.318Z,96942.73
2019-04-25T16:25:55.196Z,96947.96
2019-04-25T16:28:26.552Z,96945.99
2019-04-25T16:30:57.327Z,96954.95
2019-04-25T16:33:29.001Z,96944.37
2019-04-25T16:35:59.003Z,96952.93
2019-04-25T16:38:29.816Z,96948.70
2019-04-25T16:41:00.963Z,96945.34
2019-04-25T16:43:33.151Z,96941.71
2019-04-25T16:46:03.262Z,96950.23
2019-04-25T16:48:33.708Z,96952.50
2019-04-25T16:51:03.685Z,96950.24
2019-04-25T16:53:34.215Z,96954.61
2019-04-25T16:56:04.684Z,96952.16
2019-04-25T16:58:34.728Z,96957.44
2019-04-25T17:01:10.661Z,96960.83
2019-04-25T17:03:41.485Z,96966.72
2019-04-25T17:06:12.286Z,96965.12
2019-04-25T17:08:42.497Z,96967.92
2019-04-25T17:11:13.799Z,96966.38
2019-04-25T17:13:50.134Z,96967.59
2019-04-25T17:16:36.834Z,96963.67
2019-04-25T17:19:10.010Z,96955.56
2019-04-25T17:21:40.246Z,96957.22
2019-04-25T17:24:10.447Z,96961.37
2019-04-25T17:26:40.341Z,96964.05
2019-04-25T17:29:14.692Z,96965.11
2019-04-25T17:32:12.522Z,96964.61
2019-04-25T17:34:56.127Z,96966.73
2019-04-25T17:37:29.468Z,96974.31
2019-04-25T17:40:02.606Z,96978.58
2019-04-25T17:42:33.556Z,96976.29
2019-04-25T17:45:05.693Z,96974.29
2019-04-25T17:47:36.490Z,96980.11
2019-04-25T17:50:06.866Z,96985.40
2019-04-25T17:52:36.987Z,96982.64
2019-04-25T17:55:07.686Z,96986.30
2019-04-25T17:57:38.350Z,96992.15
2019-04-25T18:00:12.198Z,96998.33
2019-04-25T18:02:42.276Z,96996.25
2019-04-25T18:05:12.251Z,97004.79
2019-04-25T18:07:42.243Z,97013.63
2019-04-25T18:10:13.131Z,97009.05
2019-04-25T18:12:43.079Z,97010.72
2019-04-25T18:15:24.319Z,97011.66
2019-04-25T18:17:53.952Z,97016.45
2019-04-25T18:20:25.561Z,97021.69
2019-04-25T18:23:09.715Z,97021.84
2019-04-25T18:25:57.647Z,97026.66
2019-04-25T18:28:35.525Z,97027.72
2019-04-25T18:31:06.892Z,97033.06
2019-04-25T18:33:37.296Z,97039.53
2019-04-25T18:36:27.184Z,97049.97
2019-04-25T18:39:03.921Z,97062.32
2019-04-25T18:41:45.949Z,97074.41
2019-04-25T18:44:16.161Z,97084.80
2019-04-25T18:46:47.423Z,97103.03
2019-04-25T18:49:17.465Z,97106.00
2019-04-25T18:51:56.411Z,97113.95
2019-04-25T18:54:43.229Z,97128.52
2019-04-25T18:57:19.654Z,97121.41
2019-04-25T19:00:01.867Z,97135.64
2019-04-25T19:02:50.325Z,97151.84
2019-04-25T19:05:46.128Z,97156.41
2019-04-25T19:08:16.064Z,97154.54
2019-04-25T19:10:47.083Z,97156.20
2019-04-25T19:13:17.113Z,97168.47
2019-04-25T19:15:47.301Z,97177.91
2019-04-25T19:18:17.537Z,97182.66
2019-04-25T19:20:48.088Z,97191.28
2019-04-25T19:23:18.065Z,97199.16
2019-04-25T19:25:48.215Z,97198.98
2019-04-25T19:28:18.291Z,97208.88
2019-04-25T19:30:48.662Z,97210.28
2019-04-25T19:33:19.002Z,97216.52
2019-04-25T19:35:49.111Z,97227.43
2019-04-25T19:38:19.144Z,97227.23
2019-04-25T19:40:54.935Z,97236.58
2019-04-25T19:43:48.585Z,97226.58
2019-04-25T19:46:18.666Z,97250.42
2019-04-25T19:48:58.120Z,97272.91
2019-04-25T19:51:28.052Z,97275.97
2019-04-25T19:53:59.355Z,97280.09
2019-04-25T19:56:29.388Z,97293.38
2019-04-25T19:58:59.808Z,97296.34
2019-04-25T20:01:30.177Z,97311.23
2019-04-25T20:04:15.181Z,97318.89
2019-04-25T20:07:02.452Z,97342.69
2019-04-25T20:10:01.915Z,97330.83
2019-04-25T20:12:38.741Z,97333.97
2019-04-25T20:15:09.445Z,97335.25
2019-04-25T20:17:39.547Z,97344.94
2019-04-25T20:20:11.779Z,97343.21
2019-04-25T20:22:41.954Z,97359.55
2019-04-25T20:25:12.762Z,97356.35
2019-04-25T20:27:42.998Z,97367.89
2019-04-25T20:30:13.849Z,97376.84
2019-04-25T20:32:44.724Z,97390.79
2019-04-25T20:35:15.941Z,97387.89
2019-04-25T20:37:47.436Z,97392.36
2019-04-25T20:40:17.492Z,97400.31
2019-04-25T20:42:48.069Z,97396.50
2019-04-25T20:45:18.138Z,97416.14
2019-04-25T20:47:48.289Z,97416.84
2019-04-25T20:50:21.508Z,97427.69
2019-04-25T20:52:51.492Z,97426.80
2019-04-25T20:55:21.694Z,97436.45
2019-04-25T20:57:51.746Z,97436.14
2019-04-25T21:00:45.422Z,97460.53
2019-04-25T21:03:15.411Z,97465.91
2019-04-25T21:05:47.031Z,97456.83
2019-04-25T21:08:17.022Z,97449.16
2019-04-25T21:10:47.080Z,97453.08
2019-04-25T21:13:21.848Z,97440.00
2019-04-25T21:16:01.396Z,97447.09
2019-04-25T21:18:38.094Z,97458.23
2019-04-25T21:21:07.976Z,97472.51
2019-04-25T21:23:37.957Z,97472.53
2019-04-25T21:26:08.842Z,97473.10
2019-04-25T21:28:39.102Z,97474.84
2019-04-25T21:31:09.061Z,97487.30
2019-04-25T21:33:39.196Z,97494.46
2019-04-25T21:36:09.092Z,97478.86
2019-04-25T21:38:39.200Z,97476.22
2019-04-25T21:41:41.002Z,97480.08
2019-04-25T21:44:11.126Z,97491.64
2019-04-25T21:46:41.470Z,97521.83
2019-04-25T21:49:11.745Z,97518.72
2019-04-25T21:51:41.622Z,97508.67
2019-04-25T21:54:11.626Z,97500.37
2019-04-25T21:56:41.685Z,97500.66
2019-04-25T21:59:11.927Z,97516.23
2019-04-25T22:01:43.214Z,97518.18
2019-04-25T22:04:14.567Z,97506.63
2019-04-25T22:06:44.789Z,97495.98
2019-04-25T22:09:17.371Z,97505.58
2019-04-25T22:11:47.697Z,97512.20
2019-04-25T22:14:18.285Z,97495.97
2019-04-25T22:16:48.555Z,97483.03
2019-04-25T22:19:18.979Z,97488.14
2019-04-25T22:21:49.245Z,97495.11
2019-04-25T22:24:19.377Z,97495.11
2019-04-25T22:26:51.223Z,97488.65
2019-04-25T22:29:22.428Z,97494.80
2019-04-25T22:32:08.137Z,97520.30
2019-04-25T22:35:03.802Z,97522.27
2019-04-25T22:37:33.684Z,97509.48
2019-04-25T22:40:04.169Z,97511.72
2019-04-25T22:42:34.416Z,97518.25
2019-04-25T22:45:05.869Z,97517.47
2019-04-25T22:47:35.847Z,97518.05
2019-04-25T22:50:06.523Z,97510.81
2019-04-25T22:52:37.032Z,97503.86
2019-04-25T22:55:07.320Z,97500.36
2019-04-25T22:57:38.200Z,97497.04
2019-04-25T23:00:12.205Z,97497.73
2019-04-25T23:02:48.265Z,97513.84
2019-04-25T23:05:24.717Z,97510.81
2019-04-25T23:07:55.344Z,97518.61
2019-04-25T23:10:25.674Z,97523.91
2019-04-25T23:12:55.702Z,97516.95
2019-04-25T23:15:26.216Z,97515.11
2019-04-25T23:17:56.348Z,97505.34
2019-04-25T23:20:26.340Z,97489.38
2019-04-25T23:22:56.280Z,97481.34
2019-04-25T23:25:31.885Z,97496.91
2019-04-25T23:28:20.714Z,97499.36
2019-04-25T23:31:08.855Z,97495.14
2019-04-25T23:33:38.829Z,97497.39
2019-04-25T23:36:09.171Z,97501.43
2019-04-25T23:38:39.124Z,97526.34
2019-04-25T23:41:09.462Z,97524.27
2019-04-25T23:43:39.379Z,97515.82
2019-04-25T23:46:10.101Z,97495.38
2019-04-25T23:48:40.774Z,97478.92
2019-04-25T23:51:11.343Z,97465.72
2019-04-25T23:53:41.474Z,97451.02
2019-04-25T23:56:11.506Z,97477.63
2019-04-25T23:58:41.633Z,97496.79
